Time;durP1;ratioP1;P1;durP2;ratioP2;P2;SDS_P1;SDS_P2;PMS_P1;PMS_P2;Temp;Humidity;BMP_temperature;BMP_pressure;BME280_temperature;BME280_humidity;BME280_pressure;Samples;Min_cycle;Max_cycle;Signal;HPM_P1;HPM_P2
2021/04/19 00:02:24;;;;;;;;;39.25;35.25;;;;;;;;8873233;40;10272;-56
2021/04/19 00:08:26;;;;;;;;;37.25;34.25;;;;;;;;8873136;40;10535;-56
2021/04/19 00:14:28;;;;;;;;;35.25;32.50;;;;;;;;8849630;40;11046;-55
2021/04/19 00:20:29;;;;;;;;;37.50;35.75;;;;;;;;8847966;40;10400;-56
2021/04/19 00:26:31;;;;;;;;;22.50;17.75;;;;;;;;8846712;40;10385;-56
2021/04/19 00:32:33;;;;;;;;;40.50;35.25;;;;;;;;8848416;40;10844;-56
2021/04/19 00:38:34;;;;;;;;;29.75;29.75;;;;;;;;8846954;40;10506;-55
2021/04/19 00:44:37;;;;;;;;;36.25;32.00;;;;;;;;8836741;40;10628;-55
2021/04/19 00:50:39;;;;;;;;;32.75;29.25;;;;;;;;8847987;40;10409;-56
2021/04/19 00:56:40;;;;;;;;;32.00;29.75;;;;;;;;8847558;40;10632;-57
2021/04/19 01:02:42;;;;;;;;;30.75;28.25;;;;;;;;8850629;40;11013;-57
2021/04/19 01:08:47;;;;;;;;;34.50;32.75;;;;;;;;8871617;40;10527;-56
2021/04/19 01:14:49;;;;;;;;;40.50;35.25;;;;;;;;8870123;40;10515;-56
2021/04/19 01:20:53;;;;;;;;;34.75;30.25;;;;;;;;8873481;40;10561;-55
2021/04/19 01:26:57;;;;;;;;;37.00;32.75;;;;;;;;8870657;40;10551;-57
2021/04/19 01:32:58;;;;;;;;;38.75;35.00;;;;;;;;8876075;40;10400;-56
2021/04/19 01:39:01;;;;;;;;;42.25;36.75;;;;;;;;8874475;40;10493;-57
2021/04/19 01:45:06;;;;;;;;;35.25;32.50;;;;;;;;8873180;40;11030;-56
2021/04/19 01:51:08;;;;;;;;;36.00;36.00;;;;;;;;8875875;40;10363;-57
2021/04/19 01:57:11;;;;;;;;;36.25;33.25;;;;;;;;8873024;40;10469;-56
2021/04/19 02:03:38;;;;;;;;;40.25;35.25;;;;;;;;8874761;40;10452;-54
2021/04/19 02:10:04;;;;;;;;;35.75;34.00;;;;;;;;8874720;40;10585;-57
2021/04/19 02:16:16;;;;;;;;;32.00;28.25;;;;;;;;8876179;40;10388;-55
2021/04/19 02:22:28;;;;;;;;;43.50;38.50;;;;;;;;8874336;40;10402;-57
2021/04/19 02:28:41;;;;;;;;;47.50;42.00;;;;;;;;8874715;40;10496;-55
2021/04/19 02:34:53;;;;;;;;;48.75;41.75;;;;;;;;8873986;40;10459;-57
2021/04/19 02:40:56;;;;;;;;;46.25;41.75;;;;;;;;8872846;40;10440;-57
2021/04/19 02:46:58;;;;;;;;;45.00;40.00;;;;;;;;8873922;40;10550;-57
2021/04/19 02:53:03;;;;;;;;;50.00;43.50;;;;;;;;8873248;40;11197;-54
2021/04/19 02:59:09;;;;;;;;;43.00;39.00;;;;;;;;8875359;40;10415;-57
2021/04/19 03:05:15;;;;;;;;;44.00;38.75;;;;;;;;8873914;40;10464;-58
2021/04/19 03:11:42;;;;;;;;;43.25;39.00;;;;;;;;8871850;40;10563;-57
2021/04/19 03:17:47;;;;;;;;;37.00;33.75;;;;;;;;8868727;40;10489;-56
2021/04/19 03:23:54;;;;;;;;;37.75;35.50;;;;;;;;8871895;40;10886;-56
2021/04/19 03:30:07;;;;;;;;;45.25;41.00;;;;;;;;8873966;40;10436;-56
2021/04/19 03:36:20;;;;;;;;;44.75;40.00;;;;;;;;8871958;40;10882;-57
2021/04/19 03:42:25;;;;;;;;;53.00;45.00;;;;;;;;8873291;40;10480;-57
2021/04/19 03:48:28;;;;;;;;;53.25;44.25;;;;;;;;8873617;40;10559;-56
2021/04/19 03:54:43;;;;;;;;;55.25;44.25;;;;;;;;8871647;40;10401;-56
2021/04/19 04:07:19;;;;;;;;;51.00;44.50;;;;;;;;8892549;23;10554;-52
2021/04/19 04:13:29;;;;;;;;;54.50;42.50;;;;;;;;8751173;40;10601;-52
2021/04/19 04:19:32;;;;;;;;;47.00;42.25;;;;;;;;8752085;40;10497;-52
2021/04/19 04:25:47;;;;;;;;;52.75;44.25;;;;;;;;8751492;40;10580;-54
2021/04/19 04:31:52;;;;;;;;;58.50;48.50;;;;;;;;8750724;40;11083;-55
2021/04/19 04:37:54;;;;;;;;;48.50;43.00;;;;;;;;8752435;40;10512;-55
2021/04/19 04:44:05;;;;;;;;;48.00;41.75;;;;;;;;8749990;40;10579;-55
2021/04/19 04:50:10;;;;;;;;;42.50;38.75;;;;;;;;8751184;40;10605;-52
2021/04/19 04:56:14;;;;;;;;;47.50;41.50;;;;;;;;8752056;40;10539;-53
2021/04/19 05:02:20;;;;;;;;;44.25;38.00;;;;;;;;8751016;40;10536;-54
2021/04/19 05:08:25;;;;;;;;;45.75;41.00;;;;;;;;8751237;40;10702;-54
2021/04/19 05:14:26;;;;;;;;;46.00;38.75;;;;;;;;8741054;40;11165;-55
2021/04/19 05:20:28;;;;;;;;;44.75;39.50;;;;;;;;8727473;40;11409;-53
2021/04/19 05:26:30;;;;;;;;;42.00;38.50;;;;;;;;8727287;40;10549;-54
2021/04/19 05:32:32;;;;;;;;;47.25;41.75;;;;;;;;8727521;40;10579;-53
2021/04/19 05:38:35;;;;;;;;;45.25;40.25;;;;;;;;8728096;40;11617;-53
2021/04/19 05:44:37;;;;;;;;;54.50;42.25;;;;;;;;8726210;40;10699;-56
2021/04/19 05:50:40;;;;;;;;;51.75;43.25;;;;;;;;8726994;40;10612;-54
2021/04/19 05:56:53;;;;;;;;;50.00;42.25;;;;;;;;8725638;40;10790;-57
2021/04/19 06:03:05;;;;;;;;;55.50;43.25;;;;;;;;8724427;40;10727;-53
2021/04/19 06:09:14;;;;;;;;;42.25;40.00;;;;;;;;8725078;40;10565;-56
2021/04/19 06:15:51;;;;;;;;;51.25;44.25;;;;;;;;8729574;40;10544;-56
2021/04/19 06:21:53;;;;;;;;;49.25;44.50;;;;;;;;8728509;40;10744;-52
2021/04/19 06:28:02;;;;;;;;;36.50;36.00;;;;;;;;8728179;40;10692;-54
2021/04/19 06:34:09;;;;;;;;;49.75;40.75;;;;;;;;8727516;40;10636;-56
2021/04/19 06:40:11;;;;;;;;;49.25;42.25;;;;;;;;8726931;40;10642;-55
2021/04/19 06:46:13;;;;;;;;;59.50;47.00;;;;;;;;8727193;40;10673;-52
2021/04/19 06:52:17;;;;;;;;;55.50;44.25;;;;;;;;8726754;40;10602;-53
2021/04/19 06:58:20;;;;;;;;;58.00;45.25;;;;;;;;8726843;40;11294;-49
2021/04/19 07:04:27;;;;;;;;;50.50;42.00;;;;;;;;8727733;40;10573;-52
2021/04/19 07:10:33;;;;;;;;;52.50;45.00;;;;;;;;8727732;40;10555;-52
2021/04/19 07:16:35;;;;;;;;;56.25;47.25;;;;;;;;8730310;40;10542;-55
2021/04/19 07:22:39;;;;;;;;;51.00;42.00;;;;;;;;8725840;40;10808;-55
2021/04/19 07:28:41;;;;;;;;;60.50;45.75;;;;;;;;8725337;40;10517;-53
2021/04/19 07:34:57;;;;;;;;;52.00;44.25;;;;;;;;8726489;40;10650;-50
2021/04/19 07:40:58;;;;;;;;;54.75;46.75;;;;;;;;8726463;40;10740;-54
2021/04/19 07:47:38;;;;;;;;;48.25;41.50;;;;;;;;8726027;40;10852;-51
2021/04/19 07:53:40;;;;;;;;;55.25;42.50;;;;;;;;8726786;40;10650;-51
2021/04/19 07:59:41;;;;;;;;;53.50;45.75;;;;;;;;8726695;40;10570;-53
2021/04/19 08:05:48;;;;;;;;;54.75;45.00;;;;;;;;8748523;40;10624;-60
2021/04/19 08:11:56;;;;;;;;;48.50;40.00;;;;;;;;8749114;40;11115;-56
2021/04/19 08:18:04;;;;;;;;;53.25;43.25;;;;;;;;8728151;40;11265;-55
2021/04/19 08:24:16;;;;;;;;;57.75;47.75;;;;;;;;8724770;40;10592;-53
2021/04/19 08:30:18;;;;;;;;;56.75;47.00;;;;;;;;8725551;40;11123;-54
2021/04/19 08:36:20;;;;;;;;;41.00;39.00;;;;;;;;8726370;40;10588;-51
2021/04/19 08:42:22;;;;;;;;;51.00;44.50;;;;;;;;8724996;40;10665;-56
2021/04/19 08:48:24;;;;;;;;;48.00;39.25;;;;;;;;8726561;40;10580;-55
2021/04/19 08:54:26;;;;;;;;;58.25;47.25;;;;;;;;8724483;40;10573;-56
2021/04/19 09:00:28;;;;;;;;;52.25;45.00;;;;;;;;8725145;40;10837;-55
2021/04/19 09:06:40;;;;;;;;;57.50;46.00;;;;;;;;8724568;40;10565;-53
2021/04/19 09:12:42;;;;;;;;;52.00;44.25;;;;;;;;8720340;40;10440;-56
2021/04/19 09:18:53;;;;;;;;;53.50;43.50;;;;;;;;8750055;40;10639;-54
2021/04/19 09:25:00;;;;;;;;;40.75;34.75;;;;;;;;8731103;40;10719;-56
2021/04/19 09:31:09;;;;;;;;;47.50;40.25;;;;;;;;8724965;40;10625;-55
2021/04/19 09:37:16;;;;;;;;;51.00;40.75;;;;;;;;8748322;40;11152;-52
2021/04/19 09:43:37;;;;;;;;;52.00;42.50;;;;;;;;8747596;40;10528;-54
2021/04/19 09:49:41;;;;;;;;;46.25;39.50;;;;;;;;8749358;40;10545;-54
2021/04/19 09:55:43;;;;;;;;;44.00;39.67;;;;;;;;8752169;40;10288;-53
2021/04/19 10:01:50;;;;;;;;;46.75;38.75;;;;;;;;8753023;40;10708;-56
2021/04/19 10:07:51;;;;;;;;;56.25;46.75;;;;;;;;8752451;40;10620;-54
2021/04/19 10:13:53;;;;;;;;;48.00;40.00;;;;;;;;8751845;40;10082;-54
2021/04/19 10:19:55;;;;;;;;;44.25;39.25;;;;;;;;8727534;40;10596;-50
2021/04/19 10:25:57;;;;;;;;;45.00;39.25;;;;;;;;8727864;40;10581;-57
2021/04/19 10:32:01;;;;;;;;;49.25;42.50;;;;;;;;8729563;40;10601;-58
2021/04/19 10:38:03;;;;;;;;;52.33;42.00;;;;;;;;8726349;40;10117;-59
2021/04/19 10:44:06;;;;;;;;;42.67;38.67;;;;;;;;8727448;40;10120;-57
2021/04/19 10:50:08;;;;;;;;;38.67;34.00;;;;;;;;8727295;40;10055;-56
2021/04/19 10:56:10;;;;;;;;;40.00;36.00;;;;;;;;8726672;40;10100;-56
2021/04/19 11:02:12;;;;;;;;;40.00;36.33;;;;;;;;8727760;40;10150;-55
2021/04/19 11:08:14;;;;;;;;;36.33;32.67;;;;;;;;8727685;40;10089;-55
2021/04/19 11:14:19;;;;;;;;;34.33;32.00;;;;;;;;8739922;40;10123;-55
2021/04/19 11:20:31;;;;;;;;;32.33;32.33;;;;;;;;8742128;40;10262;-57
2021/04/19 11:26:34;;;;;;;;;30.00;30.00;;;;;;;;8727299;40;10140;-54
2021/04/19 11:32:35;;;;;;;;;35.00;32.00;;;;;;;;8727038;40;10105;-54
2021/04/19 11:38:39;;;;;;;;;37.33;34.00;;;;;;;;8726322;40;10133;-56
2021/04/19 11:44:49;;;;;;;;;37.33;33.00;;;;;;;;8727727;40;10072;-57
2021/04/19 11:50:51;;;;;;;;;35.67;33.00;;;;;;;;8727057;40;10176;-62
2021/04/19 11:56:53;;;;;;;;;32.67;31.00;;;;;;;;8727361;40;10642;-57
2021/04/19 12:02:54;;;;;;;;;35.33;30.67;;;;;;;;8727869;40;10623;-55
2021/04/19 12:08:56;;;;;;;;;27.33;24.33;;;;;;;;8725732;40;10059;-57
2021/04/19 12:14:57;;;;;;;;;27.00;23.67;;;;;;;;8729269;40;10112;-54
2021/04/19 12:21:00;;;;;;;;;30.00;28.00;;;;;;;;8726582;40;10101;-55
2021/04/19 12:27:02;;;;;;;;;36.00;32.00;;;;;;;;8726112;40;10080;-54
2021/04/19 12:33:04;;;;;;;;;30.33;27.00;;;;;;;;8726219;40;10037;-56
2021/04/19 12:39:06;;;;;;;;;35.33;31.67;;;;;;;;8726419;40;10092;-57
2021/04/19 12:45:08;;;;;;;;;29.00;26.67;;;;;;;;8726420;40;10137;-56
2021/04/19 12:51:10;;;;;;;;;26.33;25.00;;;;;;;;8725738;40;10327;-52
2021/04/19 12:57:11;;;;;;;;;27.33;23.67;;;;;;;;8726347;40;11757;-55
2021/04/19 13:03:13;;;;;;;;;28.00;25.67;;;;;;;;8725220;40;10151;-57
2021/04/19 13:09:14;;;;;;;;;21.33;18.00;;;;;;;;8724985;40;10150;-55
2021/04/19 13:15:16;;;;;;;;;23.33;23.33;;;;;;;;8726285;40;10080;-55
2021/04/19 13:21:24;;;;;;;;;22.67;21.00;;;;;;;;8726044;40;10342;-56
2021/04/19 13:27:25;;;;;;;;;23.00;22.33;;;;;;;;8728561;40;10231;-57
2021/04/19 13:33:28;;;;;;;;;28.00;24.67;;;;;;;;8729797;40;10063;-58
2021/04/19 13:39:32;;;;;;;;;20.33;17.67;;;;;;;;8728237;40;10103;-60
2021/04/19 13:45:34;;;;;;;;;21.67;21.33;;;;;;;;8728261;40;10109;-55
2021/04/19 13:51:35;;;;;;;;;32.33;29.67;;;;;;;;8727933;40;10244;-57
2021/04/19 13:57:39;;;;;;;;;28.00;28.00;;;;;;;;8728710;40;10049;-57
2021/04/19 14:03:40;;;;;;;;;23.33;22.33;;;;;;;;8729179;40;10107;-57
2021/04/19 14:09:41;;;;;;;;;25.00;22.33;;;;;;;;8728943;40;10306;-56
2021/04/19 14:15:45;;;;;;;;;24.00;22.00;;;;;;;;8746942;40;10083;-55
2021/04/19 14:21:47;;;;;;;;;25.33;23.33;;;;;;;;8728709;40;10303;-59
2021/04/19 14:27:48;;;;;;;;;24.00;21.33;;;;;;;;8728283;40;10149;-60
2021/04/19 14:33:49;;;;;;;;;25.33;23.33;;;;;;;;8728011;40;10183;-60
2021/04/19 14:39:51;;;;;;;;;14.00;14.00;;;;;;;;8728133;40;10131;-58
2021/04/19 14:45:55;;;;;;;;;23.33;22.00;;;;;;;;8727326;40;10081;-54
2021/04/19 14:51:56;;;;;;;;;25.67;24.33;;;;;;;;8727305;40;10087;-56
2021/04/19 14:57:58;;;;;;;;;22.33;21.00;;;;;;;;8727073;40;10060;-59
2021/04/19 15:03:59;;;;;;;;;16.33;16.00;;;;;;;;8728449;40;9995;-57
2021/04/19 15:10:02;;;;;;;;;23.00;21.00;;;;;;;;8726237;40;10079;-59
2021/04/19 15:16:04;;;;;;;;;22.00;22.00;;;;;;;;8732519;40;10150;-57
2021/04/19 15:22:05;;;;;;;;;23.67;21.00;;;;;;;;8727926;40;10053;-56
2021/04/19 15:28:07;;;;;;;;;21.00;19.00;;;;;;;;8726234;40;10106;-56
2021/04/19 15:34:26;;;;;;;;;17.33;17.33;;;;;;;;8727087;40;10054;-58
2021/04/19 15:40:27;;;;;;;;;29.33;26.33;;;;;;;;8726314;40;10356;-56
2021/04/19 15:46:29;;;;;;;;;28.50;27.50;;;;;;;;8727084;40;10702;-56
2021/04/19 15:52:30;;;;;;;;;27.00;19.67;;;;;;;;8727369;40;10116;-58
2021/04/19 15:58:32;;;;;;;;;23.50;21.75;;;;;;;;8726487;40;10813;-58
2021/04/19 16:04:33;;;;;;;;;21.00;21.00;;;;;;;;8744334;40;10099;-55
2021/04/19 16:10:36;;;;;;;;;20.33;20.33;;;;;;;;8751341;40;10070;-58
2021/04/19 16:16:38;;;;;;;;;23.50;23.50;;;;;;;;8737705;40;10599;-56
2021/04/19 16:22:39;;;;;;;;;24.75;24.75;;;;;;;;8726930;40;10765;-55
2021/04/19 16:28:42;;;;;;;;;27.50;25.50;;;;;;;;8727720;40;10640;-57
2021/04/19 16:34:44;;;;;;;;;32.50;28.50;;;;;;;;8726273;40;10792;-57
2021/04/19 16:40:46;;;;;;;;;28.50;26.25;;;;;;;;8725692;40;10734;-55
2021/04/19 16:46:48;;;;;;;;;27.00;26.00;;;;;;;;8725947;40;11087;-58
2021/04/19 16:52:51;;;;;;;;;25.00;24.50;;;;;;;;8725673;40;10525;-56
2021/04/19 16:58:53;;;;;;;;;36.00;31.50;;;;;;;;8726010;40;10731;-54
2021/04/19 17:04:55;;;;;;;;;27.50;26.00;;;;;;;;8726104;40;10620;-58
2021/04/19 17:10:56;;;;;;;;;40.25;33.75;;;;;;;;8726137;40;10548;-57
2021/04/19 17:16:58;;;;;;;;;39.25;32.00;;;;;;;;8726075;40;10635;-57
2021/04/19 17:22:59;;;;;;;;;33.50;31.50;;;;;;;;8725122;40;10573;-58
2021/04/19 17:29:01;;;;;;;;;23.25;21.25;;;;;;;;8724924;40;10543;-54
2021/04/19 17:35:04;;;;;;;;;27.75;26.50;;;;;;;;8725219;40;10623;-57
2021/04/19 17:41:07;;;;;;;;;24.25;22.00;;;;;;;;8736850;40;10668;-55
2021/04/19 17:47:09;;;;;;;;;19.00;19.00;;;;;;;;8748117;40;10488;-53
2021/04/19 17:53:10;;;;;;;;;25.25;23.50;;;;;;;;8748506;40;10605;-55
2021/04/19 17:59:12;;;;;;;;;19.00;19.00;;;;;;;;8749081;40;10451;-55
2021/04/19 18:05:16;;;;;;;;;20.75;16.75;;;;;;;;8749431;40;10531;-54
2021/04/19 18:11:18;;;;;;;;;22.25;22.25;;;;;;;;8750407;40;10580;-59
2021/04/19 18:17:19;;;;;;;;;22.00;21.50;;;;;;;;8752261;40;11310;-56
2021/04/19 18:23:21;;;;;;;;;19.00;18.75;;;;;;;;8752652;40;11040;-56
2021/04/19 18:29:22;;;;;;;;;23.50;22.00;;;;;;;;8751749;40;10623;-56
2021/04/19 18:35:24;;;;;;;;;27.50;23.00;;;;;;;;8744424;40;10600;-55
2021/04/19 18:41:25;;;;;;;;;29.50;28.50;;;;;;;;8751828;40;10700;-57
2021/04/19 18:47:27;;;;;;;;;34.00;32.25;;;;;;;;8751611;40;10656;-57
2021/04/19 18:53:28;;;;;;;;;26.75;26.50;;;;;;;;8732281;40;10598;-55
2021/04/19 18:59:31;;;;;;;;;49.25;42.75;;;;;;;;8728124;40;11492;-54
2021/04/19 19:05:32;;;;;;;;;59.25;47.25;;;;;;;;8742946;40;10616;-55
2021/04/19 19:11:34;;;;;;;;;63.25;50.50;;;;;;;;8751325;40;10815;-54
2021/04/19 19:17:35;;;;;;;;;61.50;49.25;;;;;;;;8752312;40;10688;-56
2021/04/19 19:23:37;;;;;;;;;60.50;49.25;;;;;;;;8750861;40;10668;-54
2021/04/19 19:29:39;;;;;;;;;61.75;48.00;;;;;;;;8750482;40;10678;-55
2021/04/19 19:35:41;;;;;;;;;64.00;51.00;;;;;;;;8749926;40;10663;-55
2021/04/19 19:41:42;;;;;;;;;60.75;50.25;;;;;;;;8750719;40;11220;-56
2021/04/19 19:47:45;;;;;;;;;57.50;49.00;;;;;;;;8750664;40;10632;-53
2021/04/19 19:53:47;;;;;;;;;62.75;52.25;;;;;;;;8751252;40;10646;-55
2021/04/19 19:59:48;;;;;;;;;60.25;49.00;;;;;;;;8750333;40;10618;-55
2021/04/19 20:05:50;;;;;;;;;61.25;49.75;;;;;;;;8751572;40;10449;-55
2021/04/19 20:11:52;;;;;;;;;62.00;50.00;;;;;;;;8750153;40;10429;-55
2021/04/19 20:17:53;;;;;;;;;56.25;46.75;;;;;;;;8750917;40;10382;-55
2021/04/19 20:23:55;;;;;;;;;58.50;48.00;;;;;;;;8749686;40;10594;-57
2021/04/19 20:29:56;;;;;;;;;52.75;43.75;;;;;;;;8749969;40;10472;-54
2021/04/19 20:35:57;;;;;;;;;50.50;43.25;;;;;;;;8771349;40;10385;-53
2021/04/19 20:42:00;;;;;;;;;40.50;35.00;;;;;;;;8774993;40;10377;-57
2021/04/19 20:48:02;;;;;;;;;43.75;40.00;;;;;;;;8773678;40;10665;-57
2021/04/19 20:54:05;;;;;;;;;43.25;39.00;;;;;;;;8775479;40;10574;-54
2021/04/19 21:00:08;;;;;;;;;48.25;40.50;;;;;;;;8774327;40;10548;-56
2021/04/19 21:06:12;;;;;;;;;40.75;37.00;;;;;;;;8774009;40;10371;-55
2021/04/19 21:12:13;;;;;;;;;42.00;38.25;;;;;;;;8773651;40;10872;-55
2021/04/19 21:18:16;;;;;;;;;41.00;36.00;;;;;;;;8772754;40;10360;-57
2021/04/19 21:24:17;;;;;;;;;38.75;36.00;;;;;;;;8773567;40;10387;-54
2021/04/19 21:30:19;;;;;;;;;34.00;30.00;;;;;;;;8773252;40;10418;-53
2021/04/19 21:36:21;;;;;;;;;40.25;37.00;;;;;;;;8773589;40;10424;-55
2021/04/19 21:42:23;;;;;;;;;30.00;30.00;;;;;;;;8772427;40;10445;-54
2021/04/19 21:48:25;;;;;;;;;37.75;36.75;;;;;;;;8774261;40;10384;-52
2021/04/19 21:54:27;;;;;;;;;45.25;40.75;;;;;;;;8776367;40;10503;-52
2021/04/19 22:00:37;;;;;;;;;38.00;36.25;;;;;;;;8777297;40;10496;-53
2021/04/19 22:06:38;;;;;;;;;42.00;38.75;;;;;;;;8777913;40;10567;-53
2021/04/19 22:12:40;;;;;;;;;42.00;39.00;;;;;;;;8776083;40;10368;-54
2021/04/19 22:18:42;;;;;;;;;47.00;41.00;;;;;;;;8776099;40;10383;-54
2021/04/19 22:24:44;;;;;;;;;38.75;36.25;;;;;;;;8766704;40;10430;-52
2021/04/19 22:30:46;;;;;;;;;38.50;37.25;;;;;;;;8753908;40;10506;-52
2021/04/19 22:36:47;;;;;;;;;43.50;40.50;;;;;;;;8752265;40;10432;-52
2021/04/19 22:42:49;;;;;;;;;43.75;41.25;;;;;;;;8751662;40;10450;-55
2021/04/19 22:48:51;;;;;;;;;41.25;36.25;;;;;;;;8751328;40;10368;-55
2021/04/19 22:54:52;;;;;;;;;41.00;38.25;;;;;;;;8753983;40;10460;-53
2021/04/19 23:00:55;;;;;;;;;41.75;39.25;;;;;;;;8774918;40;10365;-54
2021/04/19 23:06:56;;;;;;;;;47.50;39.75;;;;;;;;8775871;40;10397;-53
2021/04/19 23:12:58;;;;;;;;;50.00;41.50;;;;;;;;8775103;40;10331;-54
2021/04/19 23:18:59;;;;;;;;;41.00;37.50;;;;;;;;8775019;40;10878;-53
2021/04/19 23:25:01;;;;;;;;;49.75;42.00;;;;;;;;8765901;40;10389;-54
2021/04/19 23:31:03;;;;;;;;;49.25;43.50;;;;;;;;8775707;40;10396;-53
2021/04/19 23:37:05;;;;;;;;;44.50;39.50;;;;;;;;8766616;40;10388;-53
2021/04/19 23:43:09;;;;;;;;;47.50;40.75;;;;;;;;8775979;40;10347;-54
2021/04/19 23:49:10;;;;;;;;;47.75;43.25;;;;;;;;8264029;40;10000623;-53
2021/04/19 23:55:12;;;;;;;;;45.25;39.25;;;;;;;;8773691;40;10453;-52
